Language selection

My Weather Profile Weather Topics  | 

Pacific - North Coast: Past 24 Hour Conditions

 

East Dellwood - 46207

12:00 AM PST 17 January 2022Buoy position: 50.88N 129.93W
Disclaimer

This table is a summary of hourly weather conditions for the past 24 hours.
Please note that these observations might not always be representative of weather conditions over their associated marine area.

Date / Time
(PST)
Wind(knots) Wave height(m) Wave period(s) Pressure(kPa) Air tempC) Water tempC)
17 January 2022
0:00 SSW 10 gust 10 2.2 7.0 101.1 8 8
16 January 2022
23:00 SSW 8 gust 12 2.3 11.0 101.1 8 8
22:00 SSW 10 gust 12 2.4 12.0 101.1 8 8
21:00 S 10 gust 13 2.4 7.0 101.2 8 8
20:00 SSW 12 gust 13 2.6 7.0 101.2 8 8
19:00 S 13 gust 16 2.6 7.0 101.2 8 8
18:00 S 12 gust 13 2.8 7.0 101.2 8 8
17:00 SSW 13 gust 17 3.1 7.0 101.2 8 8
16:00 S 17 gust 19 3.0 7.0 101.3 8 8
15:00 S 16 gust 17 2.9 7.0 101.2 8 8
14:00 SSW 17 gust 22 2.8 7.0 101.3 9 8
13:00 SSW 17 gust 22 3.0 7.0 101.3 9 8
12:00 S 16 gust 17 2.9 7.0 101.4 9 8
11:00 SSW 16 gust 17 3.1 7.0 101.5 9 8
10:00 S 17 gust 22 3.2 8.0 101.4 9 8
9:00 S 17 gust 23 3.4 7.0 101.5 9 8
8:00 SSW 17 gust 22 3.5 7.0 101.5 9 8
7:00 S 19 gust 23 3.5 7.0 101.5 9 8
6:00 S 22 gust 25 3.5 7.0 101.5 9 8
5:00 S 23 gust 27 3.7 7.0 101.5 8 8
4:00 S 25 gust 29 3.6 7.0 101.5 8 8
3:00 SSE 27 gust 33 3.8 10.0 101.5 8 8
2:00 SSE 27 gust 33 3.5 6.0 101.7 8 8
1:00 SSE 27 gust 33 3.1 13.0 101.7 8 8
0:00 SSE 23 gust 29 3.1 14.0 101.9 8 8

Zoom-in to make a selection

Map of Pacific - North Coast marine weather areas Middle Nomad - 46004 South Nomad - 46036 Dixon Entrance Central - 46145 South Moresby - 46147 Nanakwa Shoal - 46181 North Hecate Strait - 46183 North Nomad - 46184 South Hecate Strait - 46185 West Sea Otter - 46204 West Dixon Entrance - 46205 East Dellwood - 46207 West Moresby - 46208 Sartine Island Cape St.James Kindakun Rocks Langara Island Masset Municipal Airport Rose Spit Sandspit Airport Bella Bella Airport Bella Coola Airport Bonilla Island Cathedral Point Cumshewa Island Grey Islet Holland Rock Lucy Islands Lightstation Prince Rupert Airport
Legend:
buoy Buoy
land station Land Station

Pacific - North Coast Area

Another Region

What we are doing

Features

Hello Weather

Hello Weather: our upgraded telephone weather service is here. 1-833-794-3556 or 1-833-79HELLO.

Date modified: